Ana Sayfa
METAR-TAF:

METAR-TAF

Havaalanları :

Stewart, İngiliz Kolombiyası, Kanada

Enlem: 55-56N, Boylam: 129-59W, yükseklik: 7 m

Güncel hava durumu gözlemi

Rapor saat 01:00 UTC de 1 saat ve 8 dakika önce yapıldı.
Sakin rüzgar
Sıcaklık 18°C
Nem 88%
Basınç 1015 hPa
Görüş mesafesi: 12.9 km
5500 ft yükseklikte parçalı çok bulutlu
7500 ft yükseklikte çok bulutlu
hafif yağmur

METAR: CZST 180100Z 00000KT 8SM -RA BKN055 OVC075 18/16 A2998 RMK SC5AS3 LAST STFD OBS/NEXT 181300Z/ SLP153 DENSITY ALT 300FT

Saat: 19:08 (02:08 UTC)


TAF: eksik

4.000'den fazla havaalanı için hava durumu gözlemleri ve tahminleri (METAR ve TAF raporları).

Kullanılabilir istasyonlar harita üzerinde sarı ve kırmızı noktalarla gösterilir.

İstasyonun adını görmek için fareyi noktanın üzerinde gezdirin.

Sonrasında hava gözlem ve tahminlerini görmek için tıklayın.

Haritayı değiştirmek için: yaklaştırmak için siyah artı işaretli yeşil düğmeye ve uzaklaştırmak için de eksi işaretli düğmeye hızla tıklayın; bitişik haritalar için yeşil okları kullanın.


METAR-TAF: